TimePST,TemperatureF,Dew PointF,Humidity,Sea Level PressureIn,VisibilityMPH,Wind Direction,Wind SpeedMPH,Gust SpeedMPH,PrecipitationIn,Events,Conditions,WindDirDegrees,DateUTC
12:53 AM,41.0,37.0,86,30.10,10.0,Calm,Calm,-,N/A,,Overcast,0,2012-11-24 08:53:00
1:53 AM,41.0,37.0,86,30.09,10.0,Calm,Calm,-,N/A,,Partly Cloudy,0,2012-11-24 09:53:00
2:53 AM,39.9,37.0,89,30.11,9.0,WSW,5.8,-,N/A,,Clear,250,2012-11-24 10:53:00
3:53 AM,39.0,36.0,89,30.12,10.0,West,6.9,-,N/A,,Clear,260,2012-11-24 11:53:00
4:53 AM,37.0,34.0,89,30.13,8.0,West,8.1,-,N/A,,Clear,260,2012-11-24 12:53:00
5:53 AM,35.1,33.1,92,30.15,9.0,WNW,8.1,-,N/A,,Clear,300,2012-11-24 13:53:00
6:53 AM,33.1,30.9,92,30.17,9.0,WNW,6.9,-,N/A,,Clear,290,2012-11-24 14:53:00
7:53 AM,35.1,32.0,89,30.19,10.0,West,6.9,-,N/A,,Scattered Clouds,280,2012-11-24 15:53:00
8:53 AM,37.0,34.0,89,30.21,10.0,West,4.6,-,N/A,,Scattered Clouds,270,2012-11-24 16:53:00
9:53 AM,44.1,37.9,79,30.21,10.0,WSW,4.6,-,N/A,,Scattered Clouds,250,2012-11-24 17:53:00
10:53 AM,48.9,37.9,66,30.21,10.0,West,4.6,-,N/A,,Scattered Clouds,270,2012-11-24 18:53:00
11:53 AM,50.0,36.0,59,30.19,10.0,Calm,Calm,-,N/A,,Mostly Cloudy,0,2012-11-24 19:53:00
12:53 PM,51.1,35.1,54,30.18,10.0,Calm,Calm,-,N/A,,Scattered Clouds,0,2012-11-24 20:53:00
1:53 PM,52.0,36.0,54,30.17,10.0,Calm,Calm,-,N/A,,Scattered Clouds,0,2012-11-24 21:53:00
2:53 PM,51.1,35.1,54,30.17,10.0,Calm,Calm,-,N/A,,Scattered Clouds,0,2012-11-24 22:53:00
3:53 PM,46.9,37.9,71,30.17,10.0,Calm,Calm,-,N/A,,Scattered Clouds,0,2012-11-24 23:53:00
4:53 PM,44.1,36.0,73,30.18,10.0,Calm,Calm,-,N/A,,Scattered Clouds,0,2012-11-25 00:53:00
5:53 PM,37.9,34.0,86,30.18,10.0,Variable,4.6,-,N/A,,Overcast,0,2012-11-25 01:53:00
6:53 PM,35.1,32.0,89,30.19,10.0,West,4.6,-,N/A,,Scattered Clouds,260,2012-11-25 02:53:00
7:53 PM,37.0,30.0,76,30.19,10.0,Calm,Calm,-,N/A,,Mostly Cloudy,0,2012-11-25 03:53:00
8:53 PM,34.0,28.9,82,30.20,10.0,WNW,4.6,-,N/A,,Scattered Clouds,290,2012-11-25 04:53:00
9:53 PM,33.1,28.9,85,30.19,10.0,West,4.6,-,N/A,,Clear,270,2012-11-25 05:53:00
10:53 PM,30.9,27.0,85,30.20,10.0,WNW,4.6,-,N/A,,Clear,290,2012-11-25 06:53:00
11:53 PM,28.9,26.1,89,30.21,10.0,West,4.6,-,N/A,,Clear,260,2012-11-25 07:53:00